Time;durP1;ratioP1;P1;durP2;ratioP2;P2;SDS_P1;SDS_P2;PMS_P1;PMS_P2;Temp;Humidity;BMP_temperature;BMP_pressure;BME280_temperature;BME280_humidity;BME280_pressure;Samples;Min_cycle;Max_cycle;Signal;HPM_P1;HPM_P2
2022/08/07 00:01:05;;;;;;;16.20;8.90;;;11.80;3.10;;;;;;5031089;28;20441;-44
2022/08/07 00:03:30;;;;;;;16.07;8.50;;;11.70;26.70;;;;;;5031452;28;20274;-44
2022/08/07 00:05:56;;;;;;;14.20;8.73;;;11.70;92.80;;;;;;5027013;28;20810;-45
2022/08/07 00:08:22;;;;;;;12.43;8.20;;;11.70;99.90;;;;;;5011660;28;20609;-46
2022/08/07 00:10:49;;;;;;;13.63;8.90;;;11.60;99.90;;;;;;5011753;28;20206;-44
2022/08/07 00:13:15;;;;;;;13.30;8.87;;;11.60;99.90;;;;;;5011755;28;20192;-44
2022/08/07 00:15:41;;;;;;;18.60;9.80;;;11.60;99.90;;;;;;5029790;28;20449;-44
2022/08/07 00:18:08;;;;;;;16.80;9.57;;;11.60;99.90;;;;;;5031091;28;20440;-44
2022/08/07 00:20:35;;;;;;;13.33;8.33;;;11.60;99.90;;;;;;5031050;28;20178;-44
2022/08/07 00:23:01;;;;;;;13.07;9.33;;;11.60;99.90;;;;;;5039900;28;20494;-44
2022/08/07 00:25:26;;;;;;;13.07;9.43;;;11.60;99.90;;;;;;5051343;28;20421;-44
2022/08/07 00:27:52;;;;;;;13.50;9.13;;;11.50;99.90;;;;;;5048417;28;20656;-44
2022/08/07 00:30:18;;;;;;;16.80;9.53;;;11.50;99.90;;;;;;5031152;28;20183;-44
2022/08/07 00:32:48;;;;;;;16.13;10.00;;;11.50;99.90;;;;;;5030986;28;20183;-44
2022/08/07 00:35:14;;;;;;;15.23;10.27;;;11.40;99.90;;;;;;5028570;28;20469;-44
2022/08/07 00:37:40;;;;;;;16.50;10.20;;;11.40;99.90;;;;;;5030881;28;20430;-44
2022/08/07 00:40:06;;;;;;;19.30;10.13;;;11.40;99.90;;;;;;5030900;28;20483;-44
2022/08/07 00:42:32;;;;;;;15.87;9.87;;;11.40;99.90;;;;;;5031014;28;20175;-44
2022/08/07 00:44:58;;;;;;;13.13;9.33;;;11.30;99.90;;;;;;5030642;28;20244;-45
2022/08/07 00:47:23;;;;;;;14.07;8.70;;;11.30;99.90;;;;;;5030920;28;20465;-44
2022/08/07 00:49:49;;;;;;;18.63;10.80;;;11.20;99.90;;;;;;5033667;28;20190;-44
2022/08/07 00:52:15;;;;;;;13.77;9.20;;;11.20;1.00;;;;;;5030972;28;20198;-44
2022/08/07 00:54:41;;;;;;;14.03;9.47;;;11.20;1.00;;;;;;5029796;28;20293;-55
2022/08/07 00:57:08;;;;;;;14.77;9.97;;;11.20;1.00;;;;;;5034925;28;20891;-54
2022/08/07 00:59:36;;;;;;;18.07;9.77;;;11.10;1.00;;;;;;5034432;28;20194;-53
2022/08/07 01:02:04;;;;;;;15.23;9.50;;;11.10;1.00;;;;;;5016838;28;20524;-52
2022/08/07 01:04:30;;;;;;;15.17;9.00;;;11.10;1.00;;;;;;5034122;28;20437;-53
2022/08/07 01:06:55;;;;;;;17.20;10.30;;;11.20;1.00;;;;;;5034670;28;20461;-44
2022/08/07 01:09:22;;;;;;;15.93;9.90;;;11.20;1.00;;;;;;5034523;28;20592;-44
2022/08/07 01:11:49;;;;;;;15.33;9.43;;;11.10;1.00;;;;;;5034528;28;20637;-45
2022/08/07 01:14:15;;;;;;;14.33;10.27;;;11.10;1.00;;;;;;5034360;28;20479;-45
2022/08/07 01:16:41;;;;;;;20.67;10.50;;;11.10;1.00;;;;;;5033907;28;20441;-43
2022/08/07 01:19:08;;;;;;;15.50;10.07;;;11.10;1.00;;;;;;5032677;28;20187;-43
2022/08/07 01:21:34;;;;;;;16.07;10.23;;;11.00;1.00;;;;;;5016774;28;20448;-45
2022/08/07 01:24:00;;;;;;;15.80;10.27;;;11.00;1.00;;;;;;5016277;28;20486;-44
2022/08/07 01:26:26;;;;;;;14.53;9.70;;;11.00;1.00;;;;;;5034335;28;20270;-44
2022/08/07 01:28:53;;;;;;;14.43;9.20;;;11.00;1.00;;;;;;5037089;28;21012;-43
2022/08/07 01:31:19;;;;;;;16.87;10.10;;;11.00;1.00;;;;;;5034484;28;20513;-45
2022/08/07 01:33:46;;;;;;;13.90;8.47;;;11.00;1.00;;;;;;5033811;28;20433;-45
2022/08/07 01:36:12;;;;;;;13.80;9.03;;;11.00;1.00;;;;;;5033935;28;20426;-44
2022/08/07 01:38:38;;;;;;;16.53;9.43;;;11.00;1.00;;;;;;5033783;28;20509;-44
2022/08/07 01:41:05;;;;;;;14.40;9.57;;;11.00;36.10;;;;;;5033401;28;20445;-43
2022/08/07 01:43:32;;;;;;;19.93;9.50;;;11.00;53.90;;;;;;5015955;28;20844;-44
2022/08/07 01:46:00;;;;;;;13.53;9.53;;;10.90;71.30;;;;;;5026682;28;20464;-44
2022/08/07 01:48:26;;;;;;;14.07;8.70;;;10.90;87.10;;;;;;5049991;28;20823;-44
2022/08/07 01:50:57;;;;;;;13.40;9.17;;;10.80;99.90;;;;;;5039073;28;20434;-43
2022/08/07 01:53:25;;;;;;;15.10;8.43;;;10.80;99.90;;;;;;5033694;28;20572;-44
2022/08/07 01:55:57;;;;;;;13.77;9.70;;;10.80;99.90;;;;;;5033806;28;20442;-45
2022/08/07 01:58:27;;;;;;;16.03;10.00;;;10.70;99.90;;;;;;5033663;28;20453;-44
2022/08/07 02:00:59;;;;;;;18.50;10.57;;;10.70;99.90;;;;;;5033509;28;20425;-44
2022/08/07 02:03:29;;;;;;;18.67;10.00;;;10.70;99.90;;;;;;5033627;28;20451;-44
2022/08/07 02:05:59;;;;;;;14.30;9.13;;;10.60;99.90;;;;;;5024529;28;20952;-44
2022/08/07 02:08:26;;;;;;;19.90;10.27;;;10.60;99.90;;;;;;5016646;28;20567;-44
2022/08/07 02:10:55;;;;;;;14.40;10.07;;;10.50;99.90;;;;;;5019798;28;20453;-44
2022/08/07 02:13:23;;;;;;;14.60;9.03;;;10.50;1.00;;;;;;5017008;28;20448;-44
2022/08/07 02:15:51;;;;;;;19.93;11.13;;;10.50;1.00;;;;;;5020364;28;21681;-43
2022/08/07 02:18:18;;;;;;;15.73;10.40;;;10.40;1.00;;;;;;5018112;28;20996;-44
2022/08/07 02:20:48;;;;;;;18.33;9.77;;;10.40;1.00;;;;;;5024756;28;20437;-43
2022/08/07 02:23:15;;;;;;;15.20;9.60;;;10.40;1.00;;;;;;5015124;28;20419;-44
2022/08/07 02:25:42;;;;;;;19.43;10.63;;;10.40;1.00;;;;;;5033502;28;20544;-43
2022/08/07 02:28:10;;;;;;;14.50;10.00;;;10.50;1.00;;;;;;5022525;28;20652;-44
2022/08/07 02:30:37;;;;;;;15.00;9.20;;;10.50;1.00;;;;;;5030129;28;21032;-44
2022/08/07 02:33:04;;;;;;;14.60;10.00;;;10.50;1.00;;;;;;5018202;28;20619;-44
2022/08/07 02:35:33;;;;;;;17.70;9.23;;;10.50;1.00;;;;;;5031838;28;20438;-44
2022/08/07 02:38:01;;;;;;;20.23;9.90;;;10.50;1.00;;;;;;5031909;28;20473;-44
2022/08/07 02:40:29;;;;;;;17.80;10.20;;;10.40;1.00;;;;;;5020027;28;20454;-44
2022/08/07 02:42:56;;;;;;;13.57;9.40;;;10.40;40.40;;;;;;5032415;28;20479;-44
2022/08/07 02:45:25;;;;;;;17.90;10.73;;;10.40;99.90;;;;;;5034294;28;20437;-44
2022/08/07 02:47:51;;;;;;;16.97;10.60;;;10.40;99.90;;;;;;5025254;28;20552;-44
2022/08/07 02:50:16;;;;;;;16.20;10.60;;;10.40;99.90;;;;;;5010390;28;20501;-43
2022/08/07 02:53:06;;;;;;;18.33;10.07;;;10.40;1.00;;;;;;5032574;28;20317;-43
2022/08/07 02:55:34;;;;;;;14.00;9.40;;;10.40;1.00;;;;;;5031181;28;20214;-44
2022/08/07 02:58:06;;;;;;;16.23;10.90;;;10.40;1.00;;;;;;5030690;28;20514;-44
2022/08/07 03:00:37;;;;;;;17.47;11.07;;;10.30;99.90;;;;;;5023255;28;20451;-43
2022/08/07 03:03:06;;;;;;;19.57;11.13;;;10.40;99.90;;;;;;5031586;28;20449;-43
2022/08/07 03:05:35;;;;;;;13.80;9.80;;;10.40;99.90;;;;;;5032621;28;20433;-44
2022/08/07 03:08:01;;;;;;;17.97;11.50;;;10.40;1.00;;;;;;5033014;28;20930;-44
2022/08/07 03:10:27;;;;;;;16.17;10.37;;;10.40;1.00;;;;;;5032366;28;20513;-44
2022/08/07 03:12:53;;;;;;;16.13;11.23;;;10.40;99.90;;;;;;5031763;28;20935;-44
2022/08/07 03:15:19;;;;;;;16.30;10.50;;;10.40;99.90;;;;;;5031422;28;20198;-44
2022/08/07 03:17:45;;;;;;;14.10;9.73;;;10.40;99.90;;;;;;5031644;28;20456;-44
2022/08/07 03:20:11;;;;;;;13.90;8.70;;;10.40;99.90;;;;;;5032218;28;20799;-44
2022/08/07 03:22:40;;;;;;;12.97;8.73;;;10.40;1.00;;;;;;5029625;28;20558;-44
2022/08/07 03:25:07;;;;;;;16.20;11.10;;;10.40;1.00;;;;;;5040297;28;20853;-44
2022/08/07 03:27:33;;;;;;;14.97;10.10;;;10.30;1.00;;;;;;5029668;28;20480;-44
2022/08/07 03:30:00;;;;;;;12.70;9.20;;;10.20;1.00;;;;;;5034146;28;20449;-43
2022/08/07 03:32:32;;;;;;;16.50;10.57;;;10.20;99.90;;;;;;5030660;28;20441;-43
2022/08/07 03:35:02;;;;;;;14.73;9.80;;;10.20;99.90;;;;;;5030942;28;20464;-43
2022/08/07 03:37:33;;;;;;;19.07;11.17;;;10.20;99.90;;;;;;5030889;28;20480;-43
2022/08/07 03:39:59;;;;;;;15.80;10.60;;;10.20;99.90;;;;;;5032250;28;20453;-43
2022/08/07 03:42:26;;;;;;;17.03;10.57;;;10.20;99.90;;;;;;5029456;28;20441;-43
2022/08/07 03:44:51;;;;;;;15.37;9.87;;;10.10;99.90;;;;;;5029716;28;20911;-43
2022/08/07 03:47:18;;;;;;;13.80;10.17;;;10.10;99.90;;;;;;5034499;28;20527;-43
2022/08/07 03:49:44;;;;;;;17.03;10.90;;;10.10;1.00;;;;;;5030994;28;20270;-43
2022/08/07 03:52:10;;;;;;;16.67;10.43;;;10.10;1.00;;;;;;5031508;28;20502;-43
2022/08/07 03:54:36;;;;;;;18.63;12.17;;;10.10;99.90;;;;;;5030933;28;20515;-43
2022/08/07 03:57:03;;;;;;;20.93;10.70;;;10.10;99.90;;;;;;5038833;28;20468;-43
2022/08/07 03:59:31;;;;;;;18.73;11.03;;;10.10;1.00;;;;;;5029439;28;20206;-43
2022/08/07 04:01:57;;;;;;;17.60;11.30;;;10.10;99.90;;;;;;5030552;28;20788;-44
2022/08/07 04:04:23;;;;;;;17.00;10.40;;;10.20;1.00;;;;;;5034361;28;20444;-44
2022/08/07 04:06:49;;;;;;;18.67;10.90;;;10.20;1.00;;;;;;5030051;28;20540;-44
2022/08/07 04:09:15;;;;;;;15.70;10.53;;;10.20;1.00;;;;;;5031353;28;20215;-45
2022/08/07 04:11:42;;;;;;;17.77;10.67;;;10.20;22.10;;;;;;5030070;28;20752;-43
2022/08/07 04:14:08;;;;;;;20.60;11.30;;;10.20;1.00;;;;;;5029258;28;20453;-43
2022/08/07 04:16:34;;;;;;;17.80;10.73;;;10.20;1.00;;;;;;5030298;28;20550;-43
2022/08/07 04:19:00;;;;;;;14.90;10.07;;;10.20;1.00;;;;;;5001739;28;20579;-43
2022/08/07 04:21:26;;;;;;;15.60;9.60;;;10.30;1.00;;;;;;5029217;28;21104;-43
2022/08/07 04:23:52;;;;;;;20.10;10.93;;;10.30;1.00;;;;;;5031487;28;20449;-44
2022/08/07 04:26:18;;;;;;;16.67;10.77;;;10.30;1.00;;;;;;5028164;28;20202;-43
2022/08/07 04:28:44;;;;;;;17.70;11.20;;;10.30;1.00;;;;;;5012179;28;20564;-43
2022/08/07 04:31:10;;;;;;;17.23;11.03;;;10.30;64.10;;;;;;5033828;28;20281;-43
2022/08/07 04:33:36;;;;;;;17.03;11.63;;;10.40;1.00;;;;;;5026377;28;20449;-43
2022/08/07 04:36:03;;;;;;;16.83;10.40;;;10.50;1.00;;;;;;5029472;28;20783;-44
2022/08/07 04:38:29;;;;;;;18.10;10.70;;;10.50;99.90;;;;;;5030136;28;20441;-44
2022/08/07 04:40:55;;;;;;;19.57;12.17;;;10.60;1.00;;;;;;5030800;28;20903;-43
2022/08/07 04:43:27;;;;;;;17.70;10.40;;;10.60;99.90;;;;;;5032672;28;20266;-44
2022/08/07 04:46:14;;;;;;;22.03;12.07;;;10.70;1.00;;;;;;5031053;28;20412;-44
2022/08/07 04:48:56;;;;;;;19.47;11.07;;;10.70;99.90;;;;;;5029591;28;20966;-54
2022/08/07 04:51:40;;;;;;;20.90;12.57;;;10.70;99.90;;;;;;5029679;28;20453;-54
2022/08/07 04:54:32;;;;;;;21.50;12.40;;;10.80;1.00;;;;;;5029894;28;20485;-55
2022/08/07 04:57:20;;;;;;;27.30;13.43;;;10.90;99.90;;;;;;5012648;28;20437;-54
2022/08/07 04:59:58;;;;;;;19.17;12.43;;;11.10;1.00;;;;;;5029202;28;20437;-54
2022/08/07 05:02:34;;;;;;;23.63;12.27;;;11.20;1.00;;;;;;5030109;28;20526;-53
2022/08/07 05:05:17;;;;;;;23.53;12.57;;;11.40;10.70;;;;;;5033389;28;20433;-55
2022/08/07 05:08:02;;;;;;;20.80;12.60;;;11.60;99.90;;;;;;5036920;28;20508;-54
2022/08/07 05:10:42;;;;;;;27.10;14.30;;;11.70;1.00;;;;;;5032175;28;20450;-54
2022/08/07 05:13:08;;;;;;;21.77;12.50;;;11.90;99.90;;;;;;5012070;28;20499;-54
2022/08/07 05:15:37;;;;;;;23.50;13.63;;;12.00;99.90;;;;;;5030616;28;20421;-54
2022/08/07 05:18:12;;;;;;;24.90;13.90;;;12.10;1.00;;;;;;5028576;28;20893;-52
2022/08/07 05:20:42;;;;;;;27.90;13.73;;;12.10;1.00;;;;;;5031311;28;20453;-53
2022/08/07 05:23:16;;;;;;;22.47;12.83;;;12.20;32.70;;;;;;5012413;28;20445;-50
2022/08/07 05:25:43;;;;;;;22.33;12.80;;;12.30;1.00;;;;;;5027061;28;20454;-52
2022/08/07 05:28:10;;;;;;;20.83;12.97;;;12.40;1.00;;;;;;5032590;28;20466;-52
2022/08/07 05:30:37;;;;;;;25.83;14.30;;;12.50;99.90;;;;;;5031172;28;20499;-52
2022/08/07 05:33:04;;;;;;;21.27;12.47;;;12.60;1.00;;;;;;5032001;28;20469;-49
2022/08/07 05:35:34;;;;;;;25.97;12.33;;;12.80;1.00;;;;;;5034019;28;20842;-51
2022/08/07 05:38:02;;;;;;;23.50;12.87;;;12.90;99.90;;;;;;5030320;28;20453;-52
2022/08/07 05:40:29;;;;;;;19.13;11.93;;;13.10;99.90;;;;;;5030140;28;20448;-52
2022/08/07 05:42:55;;;;;;;24.50;12.67;;;13.40;1.00;;;;;;5030263;28;20520;-52
2022/08/07 05:45:22;;;;;;;20.67;12.50;;;13.70;1.00;;;;;;5033298;28;20473;-51
2022/08/07 05:47:48;;;;;;;20.07;11.60;;;14.10;1.00;;;;;;5033388;28;20519;-51
2022/08/07 05:50:15;;;;;;;18.13;12.07;;;14.40;99.90;;;;;;5032379;28;20460;-51
2022/08/07 05:52:40;;;;;;;20.27;11.80;;;14.60;1.00;;;;;;5033633;28;20265;-51
2022/08/07 05:55:07;;;;;;;17.53;11.97;;;14.90;1.00;;;;;;5033045;28;20753;-52
2022/08/07 05:57:35;;;;;;;19.37;11.13;;;15.20;1.00;;;;;;5033272;28;20665;-51
2022/08/07 06:00:02;;;;;;;18.67;11.37;;;15.50;1.00;;;;;;5032954;28;20449;-50
2022/08/07 06:02:32;;;;;;;14.03;10.60;;;15.60;1.00;;;;;;5032688;28;20787;-50
2022/08/07 06:05:09;;;;;;;16.03;10.67;;;15.80;1.00;;;;;;5037139;28;20476;-51
2022/08/07 06:07:35;;;;;;;12.93;9.47;;;16.10;1.00;;;;;;5032938;28;20476;-50
2022/08/07 06:10:02;;;;;;;15.23;9.33;;;16.40;1.00;;;;;;5032833;28;20437;-49
2022/08/07 06:12:29;;;;;;;13.47;9.37;;;16.60;1.00;;;;;;5031652;28;20187;-51
2022/08/07 06:14:56;;;;;;;12.73;9.10;;;16.70;1.00;;;;;;5025414;28;20454;-50
2022/08/07 06:17:22;;;;;;;11.47;8.03;;;16.90;1.00;;;;;;5025720;28;20447;-50
2022/08/07 06:19:48;;;;;;;19.73;9.90;;;17.00;99.90;;;;;;5032471;28;20544;-50
2022/08/07 06:22:16;;;;;;;15.63;8.00;;;17.20;99.90;;;;;;5031081;28;20781;-50
2022/08/07 06:24:42;;;;;;;11.90;6.80;;;17.40;99.90;;;;;;5032417;28;20889;-50
2022/08/07 06:27:08;;;;;;;10.77;6.63;;;17.50;99.90;;;;;;5031804;28;20555;-50
2022/08/07 06:29:34;;;;;;;14.40;7.90;;;17.60;99.90;;;;;;5032792;28;20579;-44
2022/08/07 06:32:00;;;;;;;12.00;6.80;;;17.70;99.90;;;;;;5031791;28;20441;-49
2022/08/07 06:34:26;;;;;;;8.13;5.83;;;17.80;99.90;;;;;;5032554;28;20176;-52
2022/08/07 06:36:52;;;;;;;9.70;6.20;;;18.00;99.90;;;;;;5032144;28;20265;-50
2022/08/07 06:39:19;;;;;;;12.20;6.40;;;18.20;99.90;;;;;;5035000;28;20535;-54
2022/08/07 06:41:52;;;;;;;8.07;6.40;;;18.30;99.90;;;;;;5032822;28;20186;-49
2022/08/07 06:44:20;;;;;;;12.93;5.17;;;18.50;99.90;;;;;;5029415;28;20437;-49
2022/08/07 06:46:47;;;;;;;8.43;4.93;;;18.60;99.90;;;;;;5030692;28;20446;-49
2022/08/07 06:49:13;;;;;;;7.53;4.77;;;18.60;99.90;;;;;;5031630;28;20453;-49
2022/08/07 06:51:41;;;;;;;10.73;5.97;;;18.70;99.90;;;;;;5032650;28;20428;-49
2022/08/07 06:54:09;;;;;;;9.40;5.67;;;18.90;99.90;;;;;;5031320;28;20493;-49
2022/08/07 06:56:39;;;;;;;11.17;6.83;;;19.00;99.90;;;;;;5031592;28;20433;-49
2022/08/07 06:59:12;;;;;;;9.57;5.40;;;19.20;99.90;;;;;;5031058;28;20449;-49
2022/08/07 07:01:40;;;;;;;7.90;5.00;;;19.40;99.90;;;;;;5029492;28;20453;-49
2022/08/07 07:04:06;;;;;;;9.00;5.13;;;19.60;99.90;;;;;;5018199;28;20966;-49
2022/08/07 07:06:32;;;;;;;10.03;5.23;;;19.70;99.90;;;;;;5034901;28;20516;-49
2022/08/07 07:09:26;;;;;;;7.13;4.63;;;19.90;99.90;;;;;;5028986;28;20466;-49
2022/08/07 07:12:00;;;;;;;6.00;4.50;;;20.10;99.90;;;;;;5031706;28;20446;-49
2022/08/07 07:14:31;;;;;;;7.30;4.97;;;20.00;99.90;;;;;;5032653;28;20469;-49
2022/08/07 07:17:01;;;;;;;8.73;5.30;;;20.10;99.90;;;;;;5032076;28;20446;-49
2022/08/07 07:19:36;;;;;;;8.70;4.70;;;20.30;99.90;;;;;;5030471;28;20838;-49
2022/08/07 07:22:02;;;;;;;6.07;4.27;;;20.50;99.90;;;;;;5036964;28;20448;-49
2022/08/07 07:24:28;;;;;;;8.90;5.43;;;20.70;99.90;;;;;;5035993;28;20445;-49
2022/08/07 07:26:59;;;;;;;5.57;4.23;;;21.00;99.90;;;;;;5033923;28;20473;-49
2022/08/07 07:29:29;;;;;;;6.83;4.40;;;21.20;99.90;;;;;;5025478;28;20988;-50
2022/08/07 07:31:56;;;;;;;6.50;4.47;;;21.30;99.90;;;;;;5022281;28;20449;-51
2022/08/07 07:34:27;;;;;;;11.23;4.33;;;21.40;99.90;;;;;;5032081;28;20422;-49
2022/08/07 07:36:53;;;;;;;9.40;4.77;;;21.50;99.90;;;;;;5029195;28;20448;-43
2022/08/07 07:39:22;;;;;;;5.10;4.60;;;21.70;99.90;;;;;;5033226;28;20473;-43
2022/08/07 07:41:50;;;;;;;4.97;4.47;;;21.90;99.90;;;;;;5028384;28;20446;-48
2022/08/07 07:44:17;;;;;;;7.80;5.17;;;22.10;99.90;;;;;;5026451;28;20446;-49
2022/08/07 07:46:43;;;;;;;8.70;4.67;;;21.90;99.90;;;;;;5029496;28;20794;-48
2022/08/07 07:49:12;;;;;;;6.80;4.37;;;21.80;99.90;;;;;;5031079;28;20468;-49
2022/08/07 07:51:40;;;;;;;6.90;5.20;;;21.90;99.90;;;;;;5027883;28;20922;-49
2022/08/07 07:54:07;;;;;;;5.57;4.30;;;22.30;99.90;;;;;;5030080;28;20485;-47
2022/08/07 07:56:34;;;;;;;6.80;4.93;;;22.20;99.90;;;;;;5030253;28;20576;-48
2022/08/07 07:59:01;;;;;;;6.47;5.10;;;22.20;99.90;;;;;;5030852;28;20444;-47
2022/08/07 08:01:29;;;;;;;10.47;5.30;;;22.50;99.90;;;;;;5029971;28;20462;-48
2022/08/07 08:03:59;;;;;;;8.30;4.33;;;22.90;99.90;;;;;;5032236;28;20441;-48
2022/08/07 08:06:25;;;;;;;6.87;5.17;;;22.70;99.90;;;;;;5012423;28;20438;-48
2022/08/07 08:08:52;;;;;;;5.73;4.77;;;22.60;99.90;;;;;;5014914;28;20958;-49
2022/08/07 08:11:19;;;;;;;6.90;4.93;;;22.50;99.90;;;;;;5013583;28;20430;-49
2022/08/07 08:13:46;;;;;;;5.50;4.73;;;22.50;99.90;;;;;;5030109;28;20441;-48
2022/08/07 08:16:18;;;;;;;5.53;4.03;;;22.40;99.90;;;;;;5029114;28;20464;-47
2022/08/07 08:18:45;;;;;;;6.20;4.60;;;22.40;99.90;;;;;;5031067;28;20503;-48
2022/08/07 08:27:04;;;;;;;4.97;4.50;;;23.40;99.90;;;;;;5031404;28;20441;-48
2022/08/07 08:29:59;;;;;;;6.13;4.70;;;23.50;99.90;;;;;;5030631;28;20516;-48
2022/08/07 08:32:27;;;;;;;7.57;4.87;;;23.90;99.90;;;;;;4994632;28;20554;-43
2022/08/07 08:34:56;;;;;;;5.50;4.87;;;24.30;99.90;;;;;;5029275;28;20441;-48
2022/08/07 08:37:24;;;;;;;6.73;4.13;;;24.50;99.90;;;;;;5033570;28;20816;-50
2022/08/07 08:39:52;;;;;;;5.87;3.93;;;24.60;99.90;;;;;;5031079;28;20437;-49
2022/08/07 08:42:29;;;;;;;5.13;4.60;;;24.70;99.90;;;;;;5029594;28;20453;-49
2022/08/07 08:45:10;;;;;;;4.83;4.23;;;24.70;99.90;;;;;;5028227;28;21812;-49
2022/08/07 08:47:54;;;;;;;5.03;4.37;;;25.00;99.90;;;;;;5017357;28;20549;-49
2022/08/07 08:50:21;;;;;;;5.67;4.20;;;25.40;99.90;;;;;;5011853;28;20410;-49
2022/08/07 08:52:56;;;;;;;4.60;4.07;;;25.20;99.90;;;;;;5030251;28;20476;-49
2022/08/07 08:55:32;;;;;;;8.07;4.90;;;24.40;99.90;;;;;;5013065;28;20499;-48
2022/08/07 08:58:09;;;;;;;5.03;4.40;;;24.10;99.90;;;;;;5032580;28;20471;-49
2022/08/07 09:00:43;;;;;;;4.90;4.40;;;24.10;99.90;;;;;;5033094;28;20874;-49
2022/08/07 09:03:24;;;;;;;6.43;3.83;;;24.10;99.90;;;;;;5012160;28;20926;-49
2022/08/07 09:06:08;;;;;;;5.40;4.30;;;24.40;99.90;;;;;;5025457;28;20433;-48
2022/08/07 09:08:44;;;;;;;6.63;4.20;;;24.70;99.90;;;;;;5028463;28;20473;-49
2022/08/07 09:11:15;;;;;;;5.80;4.60;;;25.10;99.90;;;;;;5037286;28;20505;-45
2022/08/07 09:14:06;;;;;;;4.97;3.80;;;25.40;99.90;;;;;;5035682;28;20433;-45
2022/08/07 09:17:00;;;;;;;6.23;4.20;;;25.30;99.90;;;;;;5030662;28;20441;-45
2022/08/07 09:20:23;;;;;;;4.77;4.37;;;25.60;99.90;;;;;;5032608;28;20516;-45
2022/08/07 09:23:00;;;;;;;6.37;4.70;;;25.70;99.90;;;;;;4933385;29;20489;-44
2022/08/07 09:25:42;;;;;;;5.53;4.20;;;25.80;99.90;;;;;;4924652;29;20441;-44
2022/08/07 09:28:18;;;;;;;5.47;4.93;;;25.60;99.90;;;;;;4996398;28;20498;-44
2022/08/07 09:30:43;;;;;;;4.50;4.10;;;25.40;99.90;;;;;;5025689;28;20504;-43
2022/08/07 09:33:33;;;;;;;4.97;4.27;;;25.00;99.90;;;;;;5033365;28;20528;-44
2022/08/07 09:36:17;;;;;;;6.60;5.07;;;24.60;99.90;;;;;;5033757;28;20182;-45
2022/08/07 09:38:49;;;;;;;4.47;4.00;;;25.00;99.90;;;;;;5034083;28;20762;-45
2022/08/07 09:41:37;;;;;;;4.90;4.40;;;25.50;99.90;;;;;;5024751;28;20974;-44
2022/08/07 09:44:13;;;;;;;5.73;4.33;;;25.60;99.90;;;;;;5033471;28;20453;-44
2022/08/07 09:47:06;;;;;;;5.70;4.83;;;25.40;99.90;;;;;;5033906;28;20507;-43
2022/08/07 09:49:47;;;;;;;5.10;4.60;;;25.30;99.90;;;;;;5033964;28;20437;-45
2022/08/07 09:52:28;;;;;;;5.70;4.83;;;25.10;99.90;;;;;;5046549;28;20448;-44
2022/08/07 09:55:07;;;;;;;5.63;4.67;;;25.10;99.90;;;;;;5005968;28;20457;-46
2022/08/07 09:58:07;;;;;;;5.40;4.60;;;25.40;99.90;;;;;;5007765;28;20449;-45
2022/08/07 10:00:58;;;;;;;4.70;4.30;;;25.50;99.90;;;;;;4987586;28;20964;-44
2022/08/07 10:03:55;;;;;;;4.83;4.40;;;25.00;99.90;;;;;;4989306;28;20474;-45
2022/08/07 10:06:46;;;;;;;6.20;4.20;;;25.10;99.90;;;;;;4991987;28;20423;-44
2022/08/07 10:09:26;;;;;;;5.20;4.60;;;25.10;99.90;;;;;;4985029;28;20467;-44
2022/08/07 10:12:09;;;;;;;7.80;4.50;;;25.00;99.90;;;;;;4993406;28;20787;-44
2022/08/07 10:15:02;;;;;;;7.50;4.53;;;25.20;99.90;;;;;;4988409;28;20407;-44
2022/08/07 10:17:56;;;;;;;5.67;5.10;;;25.80;99.90;;;;;;4993038;28;20524;-43
2022/08/07 10:20:36;;;;;;;6.43;4.23;;;25.60;99.90;;;;;;4992542;28;20443;-44
2022/08/07 10:23:24;;;;;;;5.67;4.30;;;25.40;99.90;;;;;;4983567;28;20439;-45
2022/08/07 10:26:06;;;;;;;5.53;4.93;;;25.50;99.90;;;;;;4990049;28;20444;-44
2022/08/07 10:28:37;;;;;;;6.97;4.73;;;25.90;99.90;;;;;;4990308;28;20460;-44
2022/08/07 10:31:25;;;;;;;8.53;4.40;;;26.00;99.90;;;;;;4991627;28;21101;-45
2022/08/07 10:34:19;;;;;;;5.57;4.60;;;26.20;99.90;;;;;;4988452;28;20470;-43
2022/08/07 10:36:57;;;;;;;7.63;4.73;;;26.40;99.90;;;;;;4990462;28;20463;-42
2022/08/07 10:39:38;;;;;;;7.00;4.60;;;27.00;99.90;;;;;;4991076;28;20424;-43
2022/08/07 10:42:25;;;;;;;9.67;4.63;;;27.30;99.90;;;;;;4991427;28;20498;-44
2022/08/07 10:45:15;;;;;;;6.23;4.30;;;27.40;99.90;;;;;;4995166;28;20477;-43
2022/08/07 10:47:58;;;;;;;5.30;4.13;;;27.80;99.90;;;;;;4984057;28;20471;-43
2022/08/07 10:50:31;;;;;;;4.80;3.97;;;28.30;99.90;;;;;;4987854;28;20424;-43
2022/08/07 10:53:14;;;;;;;4.50;3.97;;;28.60;99.90;;;;;;4995855;28;20551;-45
2022/08/07 10:55:49;;;;;;;4.33;3.93;;;28.50;99.90;;;;;;5028156;28;20538;-48
2022/08/07 10:58:46;;;;;;;4.90;3.93;;;28.10;99.90;;;;;;5029168;28;20453;-49
2022/08/07 11:01:30;;;;;;;4.57;3.73;;;27.30;99.90;;;;;;5030220;28;20460;-43
2022/08/07 11:04:07;;;;;;;4.87;3.93;;;27.00;99.90;;;;;;5027051;28;20432;-43
2022/08/07 11:06:46;;;;;;;4.83;4.07;;;27.10;99.90;;;;;;5029030;28;20480;-44
2022/08/07 11:09:18;;;;;;;6.90;4.23;;;26.60;99.90;;;;;;5028095;28;20457;-45
2022/08/07 11:11:55;;;;;;;3.83;3.40;;;26.90;99.90;;;;;;5025460;28;20481;-45
2022/08/07 11:14:29;;;;;;;7.30;4.13;;;27.10;99.90;;;;;;5027828;28;20844;-45
2022/08/07 11:17:13;;;;;;;5.90;4.37;;;26.40;99.90;;;;;;5027699;28;20432;-47
2022/08/07 11:19:51;;;;;;;7.40;4.17;;;25.20;99.90;;;;;;5031099;28;21247;-46
2022/08/07 11:22:47;;;;;;;6.23;4.57;;;24.70;99.90;;;;;;5023675;28;20488;-45
2022/08/07 11:25:38;;;;;;;5.93;4.07;;;25.30;99.90;;;;;;4990711;28;20465;-45
2022/08/07 11:28:16;;;;;;;5.00;4.43;;;25.80;99.90;;;;;;5030923;28;20564;-45
2022/08/07 11:31:06;;;;;;;4.63;4.17;;;25.80;99.90;;;;;;5031684;28;20469;-45
2022/08/07 11:33:50;;;;;;;4.07;3.70;;;25.50;99.90;;;;;;5030711;28;20532;-44
2022/08/07 11:36:39;;;;;;;4.63;4.10;;;24.80;99.90;;;;;;5029634;28;20489;-45
2022/08/07 11:39:22;;;;;;;6.47;4.73;;;24.50;99.90;;;;;;5031306;28;20998;-44
2022/08/07 11:41:59;;;;;;;6.07;4.10;;;24.10;99.90;;;;;;5035108;28;20495;-45
2022/08/07 11:44:51;;;;;;;5.20;4.70;;;23.70;99.90;;;;;;5031772;28;20418;-49
2022/08/07 11:47:51;;;;;;;10.13;7.80;;;23.20;99.90;;;;;;5031537;28;20413;-48
2022/08/07 11:50:48;;;;;;;5.17;4.10;;;22.90;99.90;;;;;;5026928;28;20808;-48
2022/08/07 11:53:17;;;;;;;5.97;4.03;;;22.90;99.90;;;;;;5033175;28;20485;-47
2022/08/07 11:56:17;;;;;;;5.97;4.30;;;23.40;99.90;;;;;;5032826;28;20409;-48
2022/08/07 11:59:07;;;;;;;6.20;4.10;;;24.90;99.90;;;;;;5033134;28;20501;-49
2022/08/07 12:01:55;;;;;;;4.13;3.73;;;26.30;99.90;;;;;;5033119;28;20429;-48
2022/08/07 12:04:39;;;;;;;4.17;3.77;;;27.50;99.90;;;;;;5032959;28;20530;-48
2022/08/07 12:07:31;;;;;;;4.03;3.73;;;26.90;99.90;;;;;;5032950;28;20405;-49
2022/08/07 12:10:19;;;;;;;6.57;3.63;;;26.20;99.90;;;;;;5033031;28;20467;-49
2022/08/07 12:13:07;;;;;;;9.17;4.17;;;25.50;99.90;;;;;;5032731;28;20402;-52
2022/08/07 12:15:40;;;;;;;7.70;3.77;;;25.00;99.90;;;;;;5032795;28;20899;-48
2022/08/07 12:18:20;;;;;;;6.67;4.17;;;24.50;99.90;;;;;;5032287;28;20931;-55
2022/08/07 12:21:12;;;;;;;5.50;4.40;;;24.10;99.90;;;;;;5045036;28;20437;-48
2022/08/07 12:23:41;;;;;;;6.70;4.03;;;24.10;99.90;;;;;;5041472;28;20449;-50
2022/08/07 12:26:36;;;;;;;4.47;4.07;;;25.20;99.90;;;;;;5032241;28;20425;-48
2022/08/07 12:29:22;;;;;;;3.57;3.27;;;26.70;99.90;;;;;;5032608;28;20567;-48
2022/08/07 12:32:20;;;;;;;4.70;3.97;;;28.10;99.90;;;;;;5032283;28;20516;-48
2022/08/07 12:34:48;;;;;;;4.10;3.23;;;28.80;99.90;;;;;;5025708;28;20477;-47
2022/08/07 12:37:16;;;;;;;4.00;3.70;;;28.50;99.90;;;;;;5032380;28;20480;-48
2022/08/07 12:39:45;;;;;;;4.70;3.60;;;28.40;99.90;;;;;;5028589;28;20457;-49
2022/08/07 12:42:12;;;;;;;4.00;3.40;;;28.50;99.90;;;;;;5031596;28;20476;-48
2022/08/07 12:44:40;;;;;;;3.70;3.40;;;28.30;99.90;;;;;;5032154;28;20434;-48
2022/08/07 12:47:18;;;;;;;8.70;4.55;;;27.70;99.90;;;;;;5031429;28;20429;-48
2022/08/07 12:50:05;;;;;;;6.10;3.73;;;27.20;99.90;;;;;;5032154;28;20425;-48
2022/08/07 12:52:33;;;;;;;4.40;3.80;;;26.60;99.90;;;;;;5031523;28;20528;-47
2022/08/07 12:55:17;;;;;;;6.43;4.10;;;26.30;99.90;;;;;;5031581;28;20447;-47
2022/08/07 12:57:45;;;;;;;5.27;4.00;;;26.00;99.90;;;;;;5030281;28;20433;-45
2022/08/07 13:00:11;;;;;;;4.93;4.43;;;25.70;99.90;;;;;;5030779;28;20401;-45
2022/08/07 13:03:00;;;;;;;6.03;4.00;;;25.20;99.90;;;;;;5030214;28;21257;-45
2022/08/07 13:06:02;;;;;;;5.53;3.87;;;24.80;99.90;;;;;;5010958;28;20775;-45
2022/08/07 13:08:40;;;;;;;8.30;4.77;;;24.40;99.90;;;;;;5010625;28;20823;-46
2022/08/07 13:11:25;;;;;;;4.53;4.13;;;24.40;99.90;;;;;;5022762;28;20465;-46
2022/08/07 13:14:25;;;;;;;5.70;4.13;;;24.50;99.90;;;;;;5030607;28;20550;-46
2022/08/07 13:17:12;;;;;;;8.90;3.90;;;24.70;99.90;;;;;;5030187;28;20836;-45